Time;durP1;ratioP1;P1;durP2;ratioP2;P2;SDS_P1;SDS_P2;PMS_P1;PMS_P2;Temp;Humidity;BMP_temperature;BMP_pressure;BME280_temperature;BME280_humidity;BME280_pressure;Samples;Min_cycle;Max_cycle;Signal;HPM_P1;HPM_P2
2023/11/20 00:08:25;;;;;;;4.70;0.90;;;;;;;14.28;100.00;101293.34;20870073;28;20452;-74
2023/11/20 00:18:49;;;;;;;5.47;0.98;;;;;;;14.19;100.00;101287.94;20898757;28;20049;-73
2023/11/20 00:29:11;;;;;;;6.03;1.10;;;;;;;14.10;100.00;101293.16;20912317;28;20049;-75
2023/11/20 00:39:35;;;;;;;4.32;1.10;;;;;;;14.09;100.00;101283.41;20882713;28;20087;-73
2023/11/20 00:49:59;;;;;;;4.57;1.00;;;;;;;14.13;100.00;101263.97;20867794;28;20045;-73
2023/11/20 01:00:24;;;;;;;5.30;1.10;;;;;;;14.26;100.00;101271.19;20867714;28;20053;-73
2023/11/20 01:10:47;;;;;;;5.18;1.23;;;;;;;14.37;100.00;101273.94;20879847;28;20398;-74
2023/11/20 01:21:11;;;;;;;3.33;1.08;;;;;;;14.47;100.00;101286.44;20883112;28;20453;-74
2023/11/20 01:31:34;;;;;;;4.32;1.02;;;;;;;14.59;100.00;101301.59;20882220;28;20040;-73
2023/11/20 01:41:59;;;;;;;4.72;0.98;;;;;;;14.68;100.00;101302.56;20920460;28;20052;-73
2023/11/20 01:52:22;;;;;;;3.22;0.90;;;;;;;14.75;100.00;101314.13;20908497;28;20136;-73
2023/11/20 02:02:47;;;;;;;4.22;1.00;;;;;;;14.81;100.00;101292.00;20938483;28;20106;-73
2023/11/20 02:13:10;;;;;;;6.28;1.25;;;;;;;14.76;100.00;101262.75;20881366;28;20407;-74
2023/11/20 02:23:35;;;;;;;7.38;1.40;;;;;;;14.72;100.00;101277.78;20890384;28;20259;-73
2023/11/20 02:34:03;;;;;;;6.53;1.00;;;;;;;14.71;100.00;101275.09;20876992;28;20064;-73
2023/11/20 02:44:25;;;;;;;3.67;1.30;;;;;;;14.66;100.00;101271.53;20877067;28;20490;-73
2023/11/20 02:54:50;;;;;;;5.15;1.17;;;;;;;14.66;100.00;101287.47;20875550;28;20433;-74
2023/11/20 03:05:13;;;;;;;3.50;0.70;;;;;;;14.60;100.00;101292.75;20872605;28;20053;-73
2023/11/20 03:15:38;;;;;;;6.47;1.05;;;;;;;14.46;100.00;101295.28;20894135;28;20041;-73
2023/11/20 03:26:00;;;;;;;1.67;0.90;;;;;;;14.34;100.00;101298.69;20871947;28;20061;-73
2023/11/20 03:36:29;;;;;;;5.35;1.05;;;;;;;14.42;100.00;101300.56;20870495;28;20049;-74
2023/11/20 03:46:52;;;;;;;3.83;1.00;;;;;;;14.41;100.00;101290.81;20869628;28;20474;-73
2023/11/20 03:57:17;;;;;;;3.28;0.82;;;;;;;14.38;100.00;101290.78;20884328;28;20139;-74
2023/11/20 04:07:40;;;;;;;3.67;0.90;;;;;;;14.36;100.00;101296.06;20878363;28;20140;-72
2023/11/20 04:18:04;;;;;;;4.10;1.20;;;;;;;14.41;100.00;101310.31;20883353;28;20045;-73
2023/11/20 04:28:28;;;;;;;6.38;1.33;;;;;;;14.39;100.00;101305.84;20884171;28;20091;-73
2023/11/20 04:38:52;;;;;;;5.38;1.20;;;;;;;14.36;100.00;101299.63;20869505;28;20490;-73
2023/11/20 04:49:15;;;;;;;4.63;1.05;;;;;;;14.26;100.00;101307.47;20898243;28;20061;-73
2023/11/20 04:59:39;;;;;;;3.92;1.15;;;;;;;14.15;100.00;101325.97;20934778;28;20051;-74
2023/11/20 05:10:03;;;;;;;4.88;0.85;;;;;;;14.14;100.00;101337.44;20897559;28;20520;-74
2023/11/20 05:20:29;;;;;;;4.65;1.15;;;;;;;14.13;100.00;101361.31;20883850;28;20049;-73
2023/11/20 05:30:52;;;;;;;3.40;0.88;;;;;;;14.20;100.00;101380.00;20881476;28;20438;-73
2023/11/20 05:41:17;;;;;;;4.70;1.00;;;;;;;14.31;100.00;101358.84;20894925;28;20053;-73
2023/11/20 05:51:42;;;;;;;7.53;1.48;;;;;;;14.76;100.00;101358.44;20893073;28;20499;-73
2023/11/20 06:02:06;;;;;;;4.25;0.93;;;;;;;15.17;100.00;101356.03;20903065;28;20080;-73
2023/11/20 06:12:28;;;;;;;3.60;0.93;;;;;;;15.69;100.00;101362.56;20877869;28;20037;-73
2023/11/20 06:22:52;;;;;;;2.60;0.80;;;;;;;15.91;100.00;101366.22;20886430;28;20056;-73
2023/11/20 06:33:15;;;;;;;3.90;1.02;;;;;;;16.02;100.00;101383.09;20903881;28;20612;-74
2023/11/20 06:43:39;;;;;;;4.45;0.70;;;;;;;16.78;100.00;101387.72;20872500;28;20047;-73
2023/11/20 06:54:02;;;;;;;2.00;0.65;;;;;;;17.24;100.00;101380.59;20887651;28;20052;-74
2023/11/20 07:04:26;;;;;;;4.95;0.82;;;;;;;17.66;100.00;101406.31;20882312;28;20057;-73
2023/11/20 07:14:48;;;;;;;2.95;0.88;;;;;;;17.87;100.00;101398.22;20870687;28;20052;-74
2023/11/20 07:25:12;;;;;;;3.70;1.00;;;;;;;18.50;100.00;101393.44;20880811;28;20052;-73
2023/11/20 07:35:35;;;;;;;10.10;4.40;;;;;;;18.69;100.00;101396.00;20868948;28;20037;-73
2023/11/20 07:46:00;;;;;;;4.40;1.63;;;;;;;19.01;100.00;101379.69;20869172;28;20510;-71
2023/11/20 07:56:22;;;;;;;5.90;1.73;;;;;;;19.50;100.00;101382.78;20888169;28;20057;-71
2023/11/20 08:06:46;;;;;;;2.03;0.70;;;;;;;19.76;100.00;101368.19;20852632;28;20061;-73
2023/11/20 08:17:10;;;;;;;2.45;0.73;;;;;;;20.32;97.71;101361.19;20881964;28;20620;-73
2023/11/20 08:27:36;;;;;;;2.05;0.40;;;;;;;20.72;91.94;101362.38;20887635;28;20053;-74
2023/11/20 08:37:59;;;;;;;1.60;0.50;;;;;;;21.05;83.41;101340.31;20879817;28;20048;-73
2023/11/20 08:48:23;;;;;;;1.90;0.32;;;;;;;20.86;77.60;101336.19;20869253;28;20065;-73
2023/11/20 08:58:45;;;;;;;1.55;0.60;;;;;;;21.15;73.86;101326.69;20914339;28;20490;-74
2023/11/20 09:09:10;;;;;;;2.20;0.60;;;;;;;21.62;70.90;101318.63;20870925;28;20140;-73
2023/11/20 09:19:34;;;;;;;1.63;0.40;;;;;;;21.71;67.24;101309.47;20865224;28;20072;-74
2023/11/20 09:29:59;;;;;;;1.85;0.40;;;;;;;21.91;65.66;101318.00;20889894;28;20059;-73
2023/11/20 09:40:22;;;;;;;1.80;0.50;;;;;;;21.94;61.78;101303.59;20566001;28;69570;-74
2023/11/20 09:50:49;;;;;;;2.10;0.40;;;;;;;22.13;56.88;101276.25;20558149;28;20137;-74
2023/11/20 10:01:13;;;;;;;1.45;0.32;;;;;;;22.37;54.79;101272.13;20587446;28;20065;-73
2023/11/20 10:11:41;;;;;;;1.70;0.85;;;;;;;29.94;33.04;101258.44;20604851;28;20038;-77
2023/11/20 10:35:41;;;;;;;2.20;0.60;;;;;;;30.84;29.45;101224.03;10509050;27;20393;-76
2023/11/20 10:41:08;;;;;;;5.60;2.60;;;;;;;30.52;29.60;101216.94;10438457;28;20504;-77
2023/11/20 10:46:31;;;;;;;2.58;1.02;;;;;;;30.21;30.08;101203.34;10472695;28;20116;-78
2023/11/20 10:51:56;;;;;;;3.63;0.70;;;;;;;29.95;29.60;101200.28;10467166;28;20057;-77
2023/11/20 10:57:20;;;;;;;5.28;0.65;;;;;;;29.62;30.18;101202.19;10469174;28;20740;-78
2023/11/20 11:02:44;;;;;;;2.90;0.63;;;;;;;29.34;30.92;101200.16;10476292;28;20067;-77
2023/11/20 11:08:10;;;;;;;2.95;0.30;;;;;;;28.72;31.79;101200.75;10487577;28;20210;-78
2023/11/20 11:13:33;;;;;;;2.15;0.50;;;;;;;28.87;31.64;101183.69;10485765;28;20507;-77
2023/11/20 11:19:02;;;;;;;1.63;0.60;;;;;;;28.86;32.06;101181.91;10483826;28;20392;-79
2023/11/20 11:24:28;;;;;;;3.13;0.65;;;;;;;29.01;32.31;101185.66;10462340;28;20052;-78
2023/11/20 11:29:56;;;;;;;2.85;1.60;;;;;;;28.70;33.12;101180.91;10448335;28;20091;-77
2023/11/20 11:35:36;;;;;;;1.98;0.70;;;;;;;27.34;34.86;101178.69;10501122;28;20053;-79
2023/11/20 11:41:20;;;;;;;1.17;0.40;;;;;;;25.54;38.92;101168.41;10477988;28;20040;-78
2023/11/20 11:46:44;;;;;;;2.75;1.23;;;;;;;24.67;41.05;101157.34;10473555;28;20056;-78
2023/11/20 11:52:07;;;;;;;3.45;0.85;;;;;;;24.32;42.10;101151.34;10443299;28;20060;-78
2023/11/20 11:57:32;;;;;;;3.30;0.80;;;;;;;24.06;42.55;101146.81;10451554;28;20459;-77
2023/11/20 12:02:56;;;;;;;1.95;0.55;;;;;;;23.90;42.88;101147.38;10423114;28;20448;-77
2023/11/20 12:08:21;;;;;;;3.15;0.70;;;;;;;23.77;43.46;101146.91;10429582;28;20056;-77
2023/11/20 12:14:16;;;;;;;3.97;1.00;;;;;;;23.66;44.58;101149.06;10436116;28;20190;-78
2023/11/20 12:19:42;;;;;;;2.17;0.50;;;;;;;23.73;43.95;101142.56;10439933;28;20045;-77
2023/11/20 12:25:06;;;;;;;3.42;1.17;;;;;;;23.34;44.81;101145.56;10433025;28;20052;-76
2023/11/20 12:30:28;;;;;;;6.85;1.40;;;;;;;23.00;46.05;101144.78;10428708;28;20049;-77
2023/11/20 12:35:54;;;;;;;3.55;1.08;;;;;;;22.61;47.41;101152.16;10445921;28;20505;-77
2023/11/20 12:41:20;;;;;;;5.15;0.90;;;;;;;22.39;49.11;101142.91;10434202;28;20702;-77
2023/11/20 12:46:42;;;;;;;2.05;0.70;;;;;;;22.19;49.43;101141.63;10433839;28;20044;-77
2023/11/20 12:52:07;;;;;;;3.38;0.93;;;;;;;21.89;51.20;101142.38;10457530;28;20132;-76
2023/11/20 12:57:31;;;;;;;2.92;0.82;;;;;;;21.73;52.41;101146.34;10451014;28;20048;-77
2023/11/20 13:02:55;;;;;;;3.72;1.02;;;;;;;21.61;52.76;101146.66;10431306;28;20500;-76
2023/11/20 13:08:20;;;;;;;0.85;0.60;;;;;;;21.48;53.12;101135.31;10456939;28;20070;-76
2023/11/20 13:13:44;;;;;;;2.78;0.70;;;;;;;21.21;53.08;101142.19;10448258;28;20045;-76
2023/11/20 13:19:07;;;;;;;3.42;0.63;;;;;;;21.00;53.78;101138.13;10448029;28;20519;-76
2023/11/20 13:24:32;;;;;;;4.28;1.30;;;;;;;20.86;54.95;101150.97;10434836;28;20084;-75
2023/11/20 13:30:15;;;;;;;7.00;4.13;;;;;;;20.83;55.68;101155.50;10473432;28;20108;-76
2023/11/20 13:35:40;;;;;;;14.35;6.55;;;;;;;20.77;56.70;101166.38;10422001;28;20060;-75
2023/11/20 13:41:07;;;;;;;6.20;1.98;;;;;;;20.59;58.55;101156.88;10430346;28;20069;-76
2023/11/20 13:46:31;;;;;;;3.40;1.48;;;;;;;20.42;60.02;101173.28;10471281;28;20063;-76
2023/11/20 13:51:54;;;;;;;5.47;1.88;;;;;;;20.21;62.26;101177.22;10454606;28;20126;-76
2023/11/20 13:57:17;;;;;;;7.10;1.90;;;;;;;19.98;65.47;101175.81;10470551;28;20041;-77
2023/11/20 14:02:40;;;;;;;4.93;1.08;;;;;;;19.77;68.76;101167.22;10427224;28;20037;-76
2023/11/20 14:08:04;;;;;;;3.28;1.00;;;;;;;19.55;72.18;101176.50;10456320;28;20661;-76
2023/11/20 14:13:28;;;;;;;2.25;1.00;;;;;;;19.35;75.29;101173.19;10494531;28;20049;-76
2023/11/20 14:18:50;;;;;;;6.57;1.60;;;;;;;19.19;78.05;101185.88;10471824;28;20115;-76
2023/11/20 14:24:13;;;;;;;6.88;1.38;;;;;;;19.04;79.63;101186.94;10402107;28;20523;-77
2023/11/20 14:29:37;;;;;;;2.15;0.88;;;;;;;18.89;81.13;101192.50;10460707;28;20053;-77
2023/11/20 14:34:59;;;;;;;4.68;1.80;;;;;;;18.73;83.32;101201.59;10445621;28;20041;-77
2023/11/20 14:40:22;;;;;;;6.88;1.60;;;;;;;18.53;86.71;101206.22;10432863;28;20094;-76
2023/11/20 14:45:46;;;;;;;9.10;4.80;;;;;;;18.30;90.17;101207.34;10430461;28;20057;-76
2023/11/20 14:51:09;;;;;;;10.32;3.63;;;;;;;18.08;93.74;101212.88;10423671;28;20045;-77
2023/11/20 14:56:34;;;;;;;8.93;3.88;;;;;;;17.90;99.26;101208.56;10446292;28;20049;-76
2023/11/20 15:01:58;;;;;;;8.63;3.13;;;;;;;17.74;100.00;101222.91;10465047;28;20055;-77
2023/11/20 15:07:20;;;;;;;7.20;3.47;;;;;;;17.51;100.00;101229.25;10430561;28;20094;-76
2023/11/20 15:12:44;;;;;;;4.00;1.85;;;;;;;17.31;100.00;101241.81;10421651;28;20052;-77
2023/11/20 15:18:08;;;;;;;16.55;9.45;;;;;;;17.06;100.00;101237.44;10435979;28;20630;-77
2023/11/20 15:23:31;;;;;;;14.60;10.07;;;;;;;16.78;100.00;101247.28;10459321;28;20052;-77
2023/11/20 15:28:58;;;;;;;14.63;5.50;;;;;;;16.61;100.00;101247.31;10454805;28;20057;-76
2023/11/20 15:37:31;;;;;;;7.68;1.20;;;;;;;22.90;100.00;101299.50;1019410;27;20946;-61
2023/11/20 15:38:23;;;;;;;7.47;0.55;;;;;;;22.76;100.00;101297.16;1034443;28;20849;-63
2023/11/20 16:21:14;;;;;;;6.97;0.73;;;;;;;24.38;100.00;101317.63;1046520;27;20349;-59
2023/11/20 16:22:06;;;;;;;5.18;0.65;;;;;;;24.25;100.00;101310.84;1028144;28;20506;-61
2023/11/20 16:22:57;;;;;;;3.50;0.50;;;;;;;27.08;100.00;101311.84;1029612;28;20050;-59
2023/11/20 16:23:49;;;;;;;4.70;0.70;;;;;;;27.67;100.00;101314.59;1019197;28;20056;-52
